Time;durP1;ratioP1;P1;durP2;ratioP2;P2;SDS_P1;SDS_P2;PMS_P1;PMS_P2;Temp;Humidity;BMP_temperature;BMP_pressure;BME280_temperature;BME280_humidity;BME280_pressure;Samples;Min_cycle;Max_cycle;Signal;HPM_P1;HPM_P2
2022/09/20 00:01:03;;;;;;;6.90;2.25;;;13.00;99.90;;;;;;5035366;28;20436;-68
2022/09/20 00:03:29;;;;;;;7.65;2.10;;;13.00;99.90;;;;;;5035662;28;20048;-67
2022/09/20 00:05:59;;;;;;;8.20;2.30;;;13.00;99.90;;;;;;5035009;28;20465;-68
2022/09/20 00:08:24;;;;;;;9.98;2.40;;;13.00;99.90;;;;;;5033797;28;20474;-68
2022/09/20 00:10:52;;;;;;;8.80;2.22;;;12.90;99.90;;;;;;5034610;28;20082;-68
2022/09/20 00:13:17;;;;;;;15.98;3.30;;;13.00;99.90;;;;;;5034523;28;20017;-68
2022/09/20 00:15:45;;;;;;;8.13;3.03;;;12.70;99.90;;;;;;5034803;28;20028;-68
2022/09/20 00:18:11;;;;;;;8.68;2.70;;;12.70;99.90;;;;;;5034741;28;20035;-68
2022/09/20 00:20:48;;;;;;;9.18;3.20;;;12.90;99.90;;;;;;5034442;28;20156;-68
2022/09/20 00:23:15;;;;;;;5.00;2.53;;;13.10;99.90;;;;;;5034183;28;20501;-68
2022/09/20 00:25:41;;;;;;;6.78;2.60;;;12.90;99.90;;;;;;5034612;28;20021;-68
2022/09/20 00:28:07;;;;;;;6.70;2.92;;;12.90;99.90;;;;;;5033331;28;20036;-68
2022/09/20 00:30:33;;;;;;;8.60;2.65;;;13.00;99.90;;;;;;5034462;28;20041;-68
2022/09/20 00:32:59;;;;;;;11.63;3.05;;;13.00;99.90;;;;;;5034130;28;20107;-68
2022/09/20 00:35:26;;;;;;;11.10;2.83;;;13.10;99.90;;;;;;5033218;28;20037;-68
2022/09/20 00:37:52;;;;;;;8.55;3.40;;;12.90;99.90;;;;;;5033833;28;20021;-68
2022/09/20 00:40:20;;;;;;;6.30;3.20;;;12.80;99.90;;;;;;5027270;28;20034;-68
2022/09/20 00:42:47;;;;;;;11.30;3.15;;;12.60;99.90;;;;;;5027963;28;20033;-68
2022/09/20 00:45:21;;;;;;;8.13;3.15;;;12.70;99.90;;;;;;5017025;28;20104;-68
2022/09/20 00:48:18;;;;;;;9.32;3.50;;;12.50;99.90;;;;;;5014310;28;20057;-68
2022/09/20 00:50:44;;;;;;;8.73;3.50;;;12.30;99.90;;;;;;4999813;28;20112;-68
2022/09/20 00:53:15;;;;;;;8.80;3.38;;;12.40;99.90;;;;;;5013908;28;20457;-68
2022/09/20 00:55:46;;;;;;;6.88;3.20;;;12.50;99.90;;;;;;5014442;28;20026;-68
2022/09/20 00:58:13;;;;;;;10.95;3.90;;;12.40;99.90;;;;;;5014050;28;20091;-68
2022/09/20 01:00:41;;;;;;;14.38;3.97;;;12.30;99.90;;;;;;5012997;28;20022;-67
2022/09/20 01:03:09;;;;;;;12.55;4.43;;;12.70;99.90;;;;;;5013730;28;20026;-68
2022/09/20 01:05:36;;;;;;;8.48;3.92;;;12.50;99.90;;;;;;5013964;28;20485;-68
2022/09/20 01:08:02;;;;;;;9.38;4.22;;;12.50;99.90;;;;;;5013373;28;20069;-68
2022/09/20 01:10:30;;;;;;;9.88;4.40;;;12.80;99.90;;;;;;5013931;28;20029;-68
2022/09/20 01:12:56;;;;;;;14.30;5.18;;;13.00;99.90;;;;;;5013823;28;20018;-68
2022/09/20 01:15:25;;;;;;;9.93;5.07;;;12.70;99.90;;;;;;5000427;28;20037;-67
2022/09/20 01:17:54;;;;;;;13.82;4.70;;;12.60;99.90;;;;;;5013648;28;20088;-68
2022/09/20 01:20:25;;;;;;;13.63;4.93;;;12.30;99.90;;;;;;5012425;28;20069;-68
2022/09/20 01:23:19;;;;;;;9.50;4.30;;;12.20;99.90;;;;;;5013571;28;20038;-68
2022/09/20 01:26:22;;;;;;;9.27;4.43;;;12.20;99.90;;;;;;5000939;28;20057;-68
2022/09/20 01:28:50;;;;;;;16.60;5.70;;;12.00;99.90;;;;;;5013189;28;20037;-68
2022/09/20 01:31:33;;;;;;;11.45;5.07;;;11.80;99.90;;;;;;5013746;28;20116;-68
2022/09/20 01:34:08;;;;;;;17.10;5.93;;;11.80;99.90;;;;;;5013378;28;20532;-68
2022/09/20 01:36:38;;;;;;;10.80;5.88;;;11.80;99.90;;;;;;5013310;28;20064;-68
2022/09/20 01:39:13;;;;;;;11.60;5.93;;;11.70;99.90;;;;;;5013333;28;20041;-68
2022/09/20 01:41:56;;;;;;;14.55;6.25;;;11.60;99.90;;;;;;5013491;28;20053;-68
2022/09/20 01:45:00;;;;;;;15.38;6.20;;;11.70;99.90;;;;;;5013498;28;20076;-68
2022/09/20 01:47:54;;;;;;;11.88;6.30;;;11.70;99.90;;;;;;5013391;28;20057;-68
2022/09/20 01:50:32;;;;;;;11.05;6.38;;;11.90;99.90;;;;;;5011851;28;20029;-68
2022/09/20 01:52:57;;;;;;;11.77;5.60;;;11.90;99.90;;;;;;5013272;28;20026;-68
2022/09/20 01:56:17;;;;;;;18.23;6.25;;;11.90;99.90;;;;;;5013217;28;20385;-68
2022/09/20 01:59:01;;;;;;;20.55;7.10;;;12.00;99.90;;;;;;4944309;28;20051;-68
2022/09/20 02:01:44;;;;;;;11.90;6.00;;;12.40;99.90;;;;;;4995547;28;20076;-68
2022/09/20 02:04:39;;;;;;;15.60;6.25;;;12.10;99.90;;;;;;5013325;28;20065;-68
2022/09/20 02:07:25;;;;;;;9.70;6.20;;;12.00;99.90;;;;;;5013161;28;20112;-68
2022/09/20 02:10:14;;;;;;;16.95;5.95;;;12.10;99.90;;;;;;5011754;28;20048;-68
2022/09/20 02:13:10;;;;;;;12.75;6.10;;;12.10;99.90;;;;;;5013035;28;20054;-68
2022/09/20 02:16:04;;;;;;;17.48;5.95;;;12.20;99.90;;;;;;5000382;28;20038;-68
2022/09/20 02:19:09;;;;;;;10.88;6.13;;;12.50;99.90;;;;;;5013164;28;20120;-68
2022/09/20 02:22:16;;;;;;;9.52;6.78;;;12.40;99.90;;;;;;5016290;28;20069;-67
2022/09/20 02:25:18;;;;;;;16.02;6.40;;;12.70;99.90;;;;;;5016325;28;20038;-68
2022/09/20 02:28:08;;;;;;;12.02;6.20;;;12.70;99.90;;;;;;5016534;28;20172;-68
2022/09/20 02:31:15;;;;;;;12.30;5.70;;;12.50;99.90;;;;;;5000105;28;20030;-68
2022/09/20 02:33:57;;;;;;;16.15;7.03;;;12.50;99.90;;;;;;4955132;28;20055;-68
2022/09/20 02:36:38;;;;;;;;;;;12.60;99.90;;;;;;4990292;28;20050;-68
2022/09/20 02:39:33;;;;;;;12.93;6.57;;;12.30;99.90;;;;;;5004693;28;20321;-68
2022/09/20 02:42:20;;;;;;;11.27;6.00;;;12.30;99.90;;;;;;5015119;28;20045;-68
2022/09/20 02:45:02;;;;;;;17.15;6.60;;;12.20;99.90;;;;;;5016576;28;20418;-68
2022/09/20 02:47:37;;;;;;;11.20;5.97;;;12.00;99.90;;;;;;5003957;28;20375;-68
2022/09/20 02:50:27;;;;;;;18.33;7.13;;;12.00;99.90;;;;;;5016369;28;20112;-68
2022/09/20 02:53:29;;;;;;;13.57;6.55;;;12.00;99.90;;;;;;5005949;28;20386;-68
2022/09/20 02:56:14;;;;;;;12.35;6.63;;;12.30;99.90;;;;;;5016268;28;20523;-68
2022/09/20 02:59:01;;;;;;;16.98;7.38;;;12.00;99.90;;;;;;5016286;28;20065;-68
2022/09/20 03:01:47;;;;;;;15.32;6.57;;;11.80;99.90;;;;;;5016176;28;20437;-68
2022/09/20 03:04:22;;;;;;;22.10;7.28;;;11.70;99.90;;;;;;5014701;28;20033;-68
2022/09/20 03:06:59;;;;;;;21.55;7.97;;;11.90;99.90;;;;;;5016152;28;20105;-68
2022/09/20 03:09:51;;;;;;;11.55;6.53;;;12.20;99.90;;;;;;5016179;28;20494;-68
2022/09/20 03:12:31;;;;;;;20.30;7.55;;;12.20;99.90;;;;;;5016245;28;20030;-68
2022/09/20 03:15:25;;;;;;;16.80;6.60;;;12.20;99.90;;;;;;5014862;28;20038;-68
2022/09/20 03:18:09;;;;;;;14.55;7.00;;;12.20;99.90;;;;;;5015733;28;20364;-67
2022/09/20 03:21:01;;;;;;;12.65;6.50;;;12.20;99.90;;;;;;5015867;28;20042;-67
2022/09/20 03:23:51;;;;;;;14.85;7.28;;;12.40;99.90;;;;;;5015944;28;20026;-68
2022/09/20 03:26:39;;;;;;;16.38;6.47;;;12.30;99.90;;;;;;5015783;28;20088;-68
2022/09/20 03:29:21;;;;;;;14.65;6.60;;;12.50;99.90;;;;;;5015776;28;20092;-68
2022/09/20 03:32:01;;;;;;;16.42;6.75;;;12.30;99.90;;;;;;5013959;28;20065;-68
2022/09/20 03:34:39;;;;;;;18.80;7.55;;;12.30;99.90;;;;;;5015772;28;20037;-68
2022/09/20 03:37:31;;;;;;;24.02;7.45;;;12.20;99.90;;;;;;5015722;28;20034;-68
2022/09/20 03:40:45;;;;;;;13.70;7.53;;;12.40;99.90;;;;;;5015599;28;20095;-68
2022/09/20 03:43:16;;;;;;;14.88;6.85;;;12.30;99.90;;;;;;4959911;28;20334;-68
2022/09/20 03:46:12;;;;;;;16.17;7.13;;;12.20;99.90;;;;;;5001901;28;20022;-68
2022/09/20 03:48:47;;;;;;;18.33;7.30;;;12.30;99.90;;;;;;5015521;28;20061;-68
2022/09/20 03:51:22;;;;;;;15.80;7.20;;;12.00;99.90;;;;;;5014311;28;20026;-68
2022/09/20 03:53:59;;;;;;;16.70;7.22;;;12.10;99.90;;;;;;5015281;28;20461;-68
2022/09/20 03:56:33;;;;;;;11.90;6.35;;;12.10;99.90;;;;;;5015496;28;20034;-68
2022/09/20 03:59:20;;;;;;;11.50;6.57;;;12.10;99.90;;;;;;5015068;28;20038;-68
2022/09/20 04:02:13;;;;;;;11.60;6.80;;;12.20;99.90;;;;;;5003708;28;20069;-69
2022/09/20 04:05:00;;;;;;;13.00;6.47;;;12.20;99.90;;;;;;5014109;28;20176;-68
2022/09/20 04:07:44;;;;;;;11.38;6.00;;;12.30;99.90;;;;;;5015147;28;20034;-68
2022/09/20 04:10:18;;;;;;;13.23;6.30;;;12.20;99.90;;;;;;5003089;28;20080;-68
2022/09/20 04:13:16;;;;;;;11.23;5.65;;;12.20;99.90;;;;;;5014615;28;20025;-68
2022/09/20 04:16:03;;;;;;;14.38;7.07;;;12.30;99.90;;;;;;5014602;28;20029;-68
2022/09/20 04:18:47;;;;;;;11.23;6.45;;;12.50;99.90;;;;;;5014776;28;20121;-68
2022/09/20 04:21:31;;;;;;;16.27;6.50;;;12.40;99.90;;;;;;5014770;28;20418;-68
2022/09/20 04:24:27;;;;;;;12.32;6.25;;;12.10;99.90;;;;;;5014858;28;20554;-68
2022/09/20 04:27:08;;;;;;;21.67;8.05;;;12.20;99.90;;;;;;5014386;28;20022;-68
2022/09/20 04:29:44;;;;;;;14.35;7.03;;;12.20;99.90;;;;;;5012902;28;20041;-68
2022/09/20 04:32:32;;;;;;;14.30;6.18;;;11.80;99.90;;;;;;5013406;28;20105;-68
2022/09/20 04:37:54;;;;;;;11.23;5.22;;;11.80;99.90;;;;;;5014362;28;20038;-68
2022/09/20 04:40:29;;;;;;;9.48;5.05;;;11.80;99.90;;;;;;5014374;28;20482;-68
2022/09/20 04:43:13;;;;;;;15.77;6.25;;;11.70;99.90;;;;;;5013684;28;20018;-67
2022/09/20 04:46:30;;;;;;;18.35;7.18;;;11.70;99.90;;;;;;5013932;28;20037;-68
2022/09/20 04:49:23;;;;;;;19.55;7.20;;;11.80;99.90;;;;;;4953566;29;20033;-68
2022/09/20 04:51:56;;;;;;;14.30;6.80;;;12.00;99.90;;;;;;5007927;28;20046;-68
2022/09/20 04:54:53;;;;;;;20.55;8.20;;;11.70;99.90;;;;;;5013919;28;20453;-68
2022/09/20 04:57:33;;;;;;;15.05;7.55;;;11.60;99.90;;;;;;5014129;28;20141;-68
2022/09/20 05:00:06;;;;;;;19.42;7.47;;;11.30;99.90;;;;;;5001619;28;20540;-68
2022/09/20 05:03:09;;;;;;;19.52;7.40;;;11.30;99.90;;;;;;5014020;28;20041;-68
2022/09/20 05:05:49;;;;;;;18.27;7.80;;;10.90;99.90;;;;;;5013000;28;20034;-68
2022/09/20 05:08:26;;;;;;;18.58;8.02;;;11.00;99.90;;;;;;5013761;28;20034;-68
2022/09/20 05:11:18;;;;;;;17.35;8.05;;;11.20;99.90;;;;;;5012907;28;20030;-68
2022/09/20 05:14:11;;;;;;;16.58;7.65;;;11.30;99.90;;;;;;5002730;28;20026;-67
2022/09/20 05:16:46;;;;;;;22.27;9.23;;;11.40;99.90;;;;;;5013980;28;20045;-68
2022/09/20 05:19:38;;;;;;;14.48;7.85;;;11.60;99.90;;;;;;5013786;28;20470;-68
2022/09/20 05:22:16;;;;;;;;;;;11.60;99.90;;;;;;5007635;28;20390;-68
2022/09/20 05:25:06;;;;;;;18.25;7.90;;;11.80;99.90;;;;;;5013246;28;19949;-67
2022/09/20 05:27:36;;;;;;;22.48;8.02;;;11.80;99.90;;;;;;5012993;28;20030;-68
2022/09/20 05:30:10;;;;;;;11.60;6.93;;;11.70;99.90;;;;;;5013335;28;20026;-68
2022/09/20 05:32:50;;;;;;;13.07;7.25;;;11.90;99.90;;;;;;5012429;28;20049;-68
2022/09/20 05:35:50;;;;;;;15.52;8.80;;;11.80;99.90;;;;;;5013447;28;20026;-68
2022/09/20 05:38:47;;;;;;;24.00;9.05;;;11.80;99.90;;;;;;5013248;28;20048;-68
2022/09/20 05:41:32;;;;;;;21.23;8.07;;;11.90;99.90;;;;;;5012400;28;20433;-68
2022/09/20 05:44:22;;;;;;;24.38;9.45;;;12.20;99.90;;;;;;5012890;28;20121;-68
2022/09/20 05:47:24;;;;;;;19.02;8.50;;;12.10;99.90;;;;;;5013331;28;20355;-68
2022/09/20 05:49:53;;;;;;;20.00;8.70;;;12.10;99.90;;;;;;5013181;28;20060;-67
2022/09/20 05:52:50;;;;;;;23.38;9.93;;;12.00;99.90;;;;;;5013097;28;20014;-68
2022/09/20 05:55:53;;;;;;;21.92;10.05;;;12.00;99.90;;;;;;5013169;28;20023;-68
2022/09/20 05:58:34;;;;;;;22.25;9.80;;;12.10;99.90;;;;;;5001502;28;20034;-68
2022/09/20 06:01:00;;;;;;;29.30;11.85;;;12.10;99.90;;;;;;5011754;28;20382;-68
2022/09/20 06:03:44;;;;;;;24.98;12.80;;;12.10;99.90;;;;;;5013172;28;20042;-68
2022/09/20 06:06:33;;;;;;;29.48;15.30;;;11.70;99.90;;;;;;5012934;28;20095;-67
2022/09/20 06:09:26;;;;;;;21.13;10.90;;;11.80;99.90;;;;;;5013087;28;20046;-67
2022/09/20 06:12:20;;;;;;;27.85;10.60;;;12.00;99.90;;;;;;5012442;28;20123;-68
2022/09/20 06:15:20;;;;;;;17.23;8.63;;;11.80;99.90;;;;;;5012607;28;20034;-68
2022/09/20 06:18:21;;;;;;;15.30;7.43;;;11.70;99.90;;;;;;5009434;28;20026;-67
2022/09/20 06:20:56;;;;;;;17.73;8.20;;;11.50;99.90;;;;;;5003643;28;20048;-67
2022/09/20 06:23:22;;;;;;;20.20;8.15;;;11.50;99.90;;;;;;5012936;28;20029;-67
2022/09/20 06:25:55;;;;;;;15.73;8.75;;;11.70;99.90;;;;;;5008604;28;20037;-67
2022/09/20 06:28:27;;;;;;;32.38;9.40;;;12.00;99.90;;;;;;5013072;28;20026;-66
2022/09/20 06:30:54;;;;;;;23.25;9.63;;;12.20;99.90;;;;;;5012731;28;20084;-67
2022/09/20 06:33:29;;;;;;;20.15;11.63;;;12.30;99.90;;;;;;5013483;28;20064;-67
2022/09/20 06:42:05;;;;;;;26.10;11.23;;;12.30;99.90;;;;;;5006766;28;20375;-67
2022/09/20 06:44:31;;;;;;;27.88;10.30;;;12.50;99.90;;;;;;5003497;28;20406;-67
2022/09/20 06:46:56;;;;;;;30.88;9.40;;;12.50;99.90;;;;;;5004162;28;20021;-67
2022/09/20 06:49:27;;;;;;;16.17;8.57;;;12.50;99.90;;;;;;5012544;28;20018;-68
2022/09/20 06:51:54;;;;;;;15.63;8.33;;;12.50;99.90;;;;;;5006792;28;20410;-67
2022/09/20 06:54:21;;;;;;;17.33;8.18;;;12.40;99.90;;;;;;5011743;28;20034;-67
2022/09/20 06:56:50;;;;;;;13.88;7.72;;;12.40;99.90;;;;;;5021105;28;20030;-68
2022/09/20 06:59:15;;;;;;;16.77;8.00;;;12.50;99.90;;;;;;5004949;28;20037;-68
2022/09/20 07:01:41;;;;;;;18.73;7.78;;;12.80;99.90;;;;;;5002862;28;20490;-68
2022/09/20 07:04:10;;;;;;;20.13;8.15;;;12.70;99.90;;;;;;5016343;28;20041;-67
2022/09/20 07:06:36;;;;;;;15.68;7.55;;;12.70;99.90;;;;;;5016585;28;20010;-67
2022/09/20 07:09:03;;;;;;;15.30;7.82;;;13.10;99.90;;;;;;5019080;28;20569;-67
2022/09/20 07:11:33;;;;;;;20.67;7.93;;;13.30;99.90;;;;;;5015099;28;20548;-67
2022/09/20 07:14:00;;;;;;;24.60;8.10;;;13.30;99.90;;;;;;5015739;28;20574;-68
2022/09/20 07:16:25;;;;;;;20.48;8.02;;;13.60;99.90;;;;;;5024419;28;20029;-68
2022/09/20 07:18:51;;;;;;;22.10;8.55;;;13.60;99.90;;;;;;5010361;28;20033;-66
2022/09/20 07:21:19;;;;;;;15.98;7.47;;;13.70;99.90;;;;;;5015703;28;20030;-70
2022/09/20 07:23:47;;;;;;;11.93;7.53;;;13.70;99.90;;;;;;5007616;28;20032;-68
2022/09/20 07:26:25;;;;;;;20.83;7.88;;;14.00;99.90;;;;;;5015814;28;20363;-69
2022/09/20 07:28:51;;;;;;;18.90;7.70;;;14.20;99.90;;;;;;5014419;28;20137;-69
2022/09/20 07:31:19;;;;;;;21.55;7.45;;;13.90;99.90;;;;;;5015559;28;20033;-68
2022/09/20 07:33:45;;;;;;;18.77;8.13;;;13.50;99.90;;;;;;5015628;28;20021;-68
2022/09/20 07:36:11;;;;;;;20.27;7.60;;;13.40;99.90;;;;;;5015574;28;20088;-69
2022/09/20 07:38:39;;;;;;;15.45;7.10;;;13.20;99.90;;;;;;5015255;28;20101;-68
2022/09/20 07:41:05;;;;;;;19.10;7.85;;;12.90;99.90;;;;;;5015422;28;20069;-69
2022/09/20 07:43:31;;;;;;;23.23;8.52;;;12.70;99.90;;;;;;5015410;28;20445;-68
2022/09/20 07:45:58;;;;;;;17.70;8.07;;;12.90;99.90;;;;;;5015421;28;20068;-68
2022/09/20 07:48:30;;;;;;;21.20;7.80;;;13.10;99.90;;;;;;5015277;28;20490;-68
2022/09/20 07:51:01;;;;;;;17.75;9.13;;;13.00;99.90;;;;;;5015459;28;20100;-68
2022/09/20 07:53:27;;;;;;;25.30;8.50;;;13.30;99.90;;;;;;5008703;28;20481;-68
2022/09/20 07:56:00;;;;;;;14.70;8.00;;;13.40;99.90;;;;;;5011340;28;20018;-68
2022/09/20 07:58:28;;;;;;;28.13;8.55;;;13.60;99.90;;;;;;5015535;28;20450;-68
2022/09/20 08:00:59;;;;;;;16.70;7.28;;;13.80;99.90;;;;;;5015376;28;20042;-69
2022/09/20 08:03:26;;;;;;;18.10;7.95;;;13.90;99.90;;;;;;5015225;28;20030;-68
2022/09/20 08:06:05;;;;;;;17.77;6.93;;;13.80;99.90;;;;;;5013986;28;20026;-68
2022/09/20 08:08:36;;;;;;;19.05;8.50;;;13.80;99.90;;;;;;5014991;28;20026;-69
2022/09/20 08:11:14;;;;;;;20.03;7.93;;;13.80;99.90;;;;;;5013807;28;20026;-68
2022/09/20 08:13:48;;;;;;;22.80;7.65;;;13.80;99.90;;;;;;5015282;28;20065;-69
2022/09/20 08:16:15;;;;;;;15.13;7.13;;;13.90;99.90;;;;;;4997602;28;20040;-69
2022/09/20 08:18:56;;;;;;;15.85;7.70;;;13.90;99.90;;;;;;5013742;28;20026;-68
2022/09/20 08:21:23;;;;;;;17.42;8.10;;;14.20;99.90;;;;;;5014835;28;20470;-69
2022/09/20 08:23:49;;;;;;;14.80;7.22;;;13.80;99.90;;;;;;5014553;28;20037;-69
2022/09/20 08:26:20;;;;;;;20.08;7.80;;;13.40;99.90;;;;;;5014867;28;20022;-69
2022/09/20 08:28:48;;;;;;;18.07;7.63;;;13.90;99.90;;;;;;5013516;28;20026;-69
2022/09/20 08:31:18;;;;;;;18.92;7.65;;;14.10;99.90;;;;;;5014670;28;20492;-69
2022/09/20 08:33:45;;;;;;;18.38;6.30;;;14.90;99.90;;;;;;5014432;28;20034;-68
2022/09/20 08:36:13;;;;;;;21.48;6.65;;;14.60;99.90;;;;;;5014290;28;20025;-69
2022/09/20 08:38:39;;;;;;;16.08;6.72;;;14.30;99.90;;;;;;5014489;28;20390;-68
2022/09/20 08:41:12;;;;;;;27.88;7.53;;;14.80;99.90;;;;;;5014604;28;20100;-69
2022/09/20 08:43:39;;;;;;;;;;;14.40;99.90;;;;;;5014792;28;20018;-69
2022/09/20 08:46:09;;;;;;;18.38;6.93;;;14.30;99.90;;;;;;5014416;28;19913;-69
2022/09/20 08:48:34;;;;;;;21.13;6.85;;;14.90;99.90;;;;;;5014160;28;20087;-69
2022/09/20 08:51:01;;;;;;;14.82;6.35;;;15.10;99.90;;;;;;5014063;28;20421;-68
2022/09/20 08:53:29;;;;;;;13.30;6.97;;;15.40;99.90;;;;;;5014261;28;20029;-69
2022/09/20 08:55:58;;;;;;;15.07;6.10;;;15.70;99.90;;;;;;5014244;28;20044;-69
2022/09/20 08:58:26;;;;;;;18.92;7.50;;;16.10;99.90;;;;;;5013992;28;20030;-69
2022/09/20 09:00:53;;;;;;;18.00;6.80;;;15.90;99.90;;;;;;5014200;28;20117;-69
2022/09/20 09:03:19;;;;;;;16.70;5.78;;;15.40;99.90;;;;;;5013897;28;20048;-70
2022/09/20 09:05:48;;;;;;;11.95;6.10;;;15.40;99.90;;;;;;5013981;28;20030;-70
2022/09/20 09:08:17;;;;;;;15.63;6.20;;;15.50;99.90;;;;;;5013851;28;20022;-69
2022/09/20 09:10:59;;;;;;;9.98;5.22;;;16.00;99.90;;;;;;5012708;28;20032;-69
2022/09/20 09:13:38;;;;;;;18.15;5.20;;;16.10;99.90;;;;;;5013584;28;20076;-69
2022/09/20 09:16:15;;;;;;;12.05;6.30;;;16.40;99.90;;;;;;5013991;28;20447;-67
2022/09/20 09:18:43;;;;;;;15.85;5.85;;;16.80;99.90;;;;;;5013763;28;20076;-69
2022/09/20 09:21:27;;;;;;;16.20;5.80;;;16.70;99.90;;;;;;5013405;28;20450;-69
2022/09/20 09:24:03;;;;;;;16.88;6.13;;;16.40;99.90;;;;;;5013711;28;20014;-69
2022/09/20 09:26:40;;;;;;;16.50;6.30;;;16.70;99.90;;;;;;5014041;28;20471;-69
2022/09/20 09:29:23;;;;;;;14.88;5.65;;;16.90;99.90;;;;;;5013037;28;20113;-68
2022/09/20 09:31:51;;;;;;;15.68;5.13;;;17.00;99.90;;;;;;5012303;28;20057;-69
2022/09/20 09:34:32;;;;;;;13.20;5.10;;;16.40;99.90;;;;;;5013206;28;20026;-69
2022/09/20 09:36:58;;;;;;;9.57;5.80;;;16.10;99.90;;;;;;5013627;28;20367;-68
2022/09/20 09:39:26;;;;;;;15.25;4.93;;;15.80;99.90;;;;;;5013297;28;20049;-69
2022/09/20 09:41:52;;;;;;;8.90;4.18;;;15.90;99.90;;;;;;5013409;28;20080;-70
2022/09/20 09:44:31;;;;;;;12.13;3.83;;;15.80;99.90;;;;;;5013370;28;20129;-69
2022/09/20 09:46:57;;;;;;;13.68;3.45;;;15.80;99.90;;;;;;5013394;28;20038;-69
2022/09/20 09:49:34;;;;;;;15.40;3.22;;;16.20;99.90;;;;;;5012862;28;20029;-70
2022/09/20 09:52:24;;;;;;;11.68;3.00;;;16.90;99.90;;;;;;5013115;28;20080;-69
2022/09/20 09:54:58;;;;;;;12.63;3.45;;;16.80;99.90;;;;;;5000864;28;20084;-69
2022/09/20 09:58:01;;;;;;;12.68;2.50;;;17.00;99.90;;;;;;5013125;28;20096;-69
2022/09/20 10:00:30;;;;;;;7.97;2.60;;;16.80;99.90;;;;;;5011709;28;20095;-69
2022/09/20 10:03:13;;;;;;;7.47;2.35;;;16.90;99.90;;;;;;5012998;28;20030;-69
2022/09/20 10:06:05;;;;;;;20.77;3.05;;;16.40;99.90;;;;;;5012993;28;20087;-69
2022/09/20 10:09:20;;;;;;;19.27;2.40;;;16.10;99.90;;;;;;4997006;28;20113;-69
2022/09/20 10:12:03;;;;;;;13.15;2.80;;;16.10;99.90;;;;;;4995781;28;20033;-69
2022/09/20 10:14:35;;;;;;;11.57;2.70;;;16.50;99.90;;;;;;5012551;28;20049;-69
2022/09/20 10:17:03;;;;;;;11.10;3.10;;;17.00;99.90;;;;;;5012804;28;20096;-69
2022/09/20 10:19:53;;;;;;;8.38;2.80;;;16.90;99.90;;;;;;5012149;28;20045;-69
2022/09/20 10:22:32;;;;;;;9.90;2.10;;;17.30;99.90;;;;;;5012762;28;20033;-70
2022/09/20 10:25:29;;;;;;;7.88;2.70;;;17.50;99.90;;;;;;5012526;28;20044;-67
2022/09/20 10:28:03;;;;;;;10.88;3.00;;;17.50;99.90;;;;;;5012776;28;20474;-68
2022/09/20 10:31:00;;;;;;;11.70;3.17;;;17.20;99.90;;;;;;4999647;28;20048;-67
2022/09/20 10:33:31;;;;;;;13.48;3.60;;;17.00;99.90;;;;;;5012212;28;20034;-67
2022/09/20 10:36:03;;;;;;;16.60;3.35;;;17.10;99.90;;;;;;5012721;28;20081;-70
2022/09/20 10:38:41;;;;;;;6.72;1.92;;;17.40;99.90;;;;;;5012615;28;20489;-70
2022/09/20 10:44:31;;;;;;;8.32;2.25;;;17.00;99.90;;;;;;5016371;28;20026;-69
2022/09/20 10:47:09;;;;;;;6.53;1.63;;;16.80;99.90;;;;;;5016168;28;20034;-69
2022/09/20 10:49:56;;;;;;;8.02;1.73;;;16.70;99.90;;;;;;5015172;28;20041;-69
2022/09/20 10:52:48;;;;;;;12.82;1.73;;;16.60;99.90;;;;;;5016070;28;20029;-69
2022/09/20 10:55:40;;;;;;;7.32;1.58;;;16.80;99.90;;;;;;5016343;28;20045;-69
2022/09/20 10:58:25;;;;;;;5.70;1.92;;;17.10;99.90;;;;;;5015730;28;20049;-69
2022/09/20 11:01:15;;;;;;;10.95;1.98;;;17.20;99.90;;;;;;5015938;28;20376;-70
2022/09/20 11:03:59;;;;;;;8.15;2.00;;;17.50;99.90;;;;;;5016218;28;20101;-69
2022/09/20 11:06:37;;;;;;;10.32;1.63;;;17.90;99.90;;;;;;5015646;28;20033;-69
2022/09/20 11:09:08;;;;;;;4.93;1.63;;;18.30;99.90;;;;;;5010535;28;20034;-69
2022/09/20 11:11:45;;;;;;;9.52;1.60;;;18.10;99.90;;;;;;5015749;28;20026;-68
2022/09/20 11:14:32;;;;;;;9.23;2.00;;;18.30;99.90;;;;;;5004698;28;20030;-67
2022/09/20 11:17:13;;;;;;;8.23;1.42;;;17.70;99.90;;;;;;5015013;28;20116;-65
2022/09/20 11:20:20;;;;;;;9.05;1.40;;;18.20;99.90;;;;;;5022265;28;20206;-65
2022/09/20 11:22:51;;;;;;;9.90;1.35;;;18.90;99.90;;;;;;4991657;28;20033;-67
2022/09/20 11:25:30;;;;;;;5.63;1.45;;;18.20;99.90;;;;;;5019161;28;20049;-67
2022/09/20 11:28:06;;;;;;;7.60;1.77;;;18.10;99.90;;;;;;5017708;28;20022;-69
2022/09/20 11:30:38;;;;;;;12.57;1.38;;;18.00;99.90;;;;;;5008471;28;20039;-67
2022/09/20 11:33:37;;;;;;;6.13;1.20;;;18.70;99.90;;;;;;5026783;28;20037;-66
2022/09/20 11:36:08;;;;;;;9.95;1.20;;;18.60;99.90;;;;;;5020411;28;20038;-67
2022/09/20 11:38:39;;;;;;;10.85;1.80;;;17.50;99.90;;;;;;5015520;28;22330;-69
2022/09/20 11:41:14;;;;;;;5.80;1.40;;;17.30;99.90;;;;;;5013797;28;20060;-69
2022/09/20 11:43:43;;;;;;;11.30;1.70;;;17.40;99.90;;;;;;5023253;28;20672;-67
2022/09/20 11:46:14;;;;;;;8.57;1.80;;;17.50;99.90;;;;;;5024597;28;20511;-67
2022/09/20 11:48:53;;;;;;;9.73;1.90;;;17.20;99.90;;;;;;5018476;28;20371;-67
2022/09/20 11:51:41;;;;;;;3.67;1.17;;;17.00;99.90;;;;;;5012575;28;20030;-66
2022/09/20 11:54:28;;;;;;;8.82;1.45;;;17.00;99.90;;;;;;5014290;28;20386;-69
2022/09/20 11:56:56;;;;;;;7.88;1.58;;;17.50;99.90;;;;;;5014322;28;20029;-67
2022/09/20 11:59:35;;;;;;;4.45;1.05;;;17.40;99.90;;;;;;5014062;28;20034;-67
2022/09/20 12:02:11;;;;;;;11.52;1.45;;;17.40;99.90;;;;;;5014694;28;20026;-67
2022/09/20 12:04:43;;;;;;;9.75;1.20;;;17.50;99.90;;;;;;5015235;28;20030;-67
2022/09/20 12:07:18;;;;;;;9.48;1.38;;;18.00;99.90;;;;;;5015115;28;20044;-67
2022/09/20 12:09:52;;;;;;;6.07;1.30;;;18.20;99.90;;;;;;5014880;28;20033;-67
2022/09/20 12:12:25;;;;;;;4.93;1.35;;;18.50;99.90;;;;;;5013458;28;20030;-67
2022/09/20 12:14:57;;;;;;;2.70;1.05;;;18.60;99.90;;;;;;5014529;28;20026;-68
2022/09/20 12:17:45;;;;;;;4.55;1.27;;;18.30;99.90;;;;;;5013739;28;20490;-67
2022/09/20 12:20:41;;;;;;;5.82;1.30;;;18.60;99.90;;;;;;4995534;28;20048;-67
2022/09/20 12:23:39;;;;;;;5.18;1.20;;;18.50;99.90;;;;;;5015111;28;20367;-67
2022/09/20 12:26:12;;;;;;;10.77;1.25;;;18.90;99.90;;;;;;5023304;28;20060;-67
2022/09/20 12:28:39;;;;;;;3.17;0.98;;;18.90;99.90;;;;;;5015598;28;20028;-67
2022/09/20 12:31:17;;;;;;;3.47;1.45;;;19.00;99.90;;;;;;5014846;28;20080;-66
2022/09/20 12:33:59;;;;;;;6.88;1.23;;;19.40;99.90;;;;;;5019303;28;20071;-66
2022/09/20 12:36:28;;;;;;;12.90;1.60;;;19.30;99.90;;;;;;5023901;28;20045;-67
2022/09/20 12:39:14;;;;;;;4.57;1.08;;;20.10;99.90;;;;;;5018582;28;20030;-67
2022/09/20 12:41:47;;;;;;;11.15;1.30;;;19.50;99.90;;;;;;5012467;28;20041;-66
2022/09/20 12:44:38;;;;;;;4.00;1.05;;;19.80;99.90;;;;;;5013480;28;20467;-65
2022/09/20 12:47:10;;;;;;;10.57;1.35;;;19.40;99.90;;;;;;5020611;28;20026;-66
2022/09/20 12:52:52;;;;;;;5.82;1.17;;;19.10;99.90;;;;;;5014829;28;20049;-67
2022/09/20 12:55:44;;;;;;;9.05;1.08;;;19.00;99.90;;;;;;5012166;28;20034;-67
2022/09/20 12:58:15;;;;;;;4.68;1.38;;;19.00;99.90;;;;;;4999775;28;20034;-67
2022/09/20 13:00:57;;;;;;;3.47;1.05;;;19.10;99.90;;;;;;5013967;28;20045;-66
2022/09/20 13:03:38;;;;;;;3.90;1.25;;;19.00;99.90;;;;;;5000886;28;20042;-66
2022/09/20 13:06:11;;;;;;;9.40;1.50;;;18.70;99.90;;;;;;5013990;28;20114;-66
2022/09/20 13:08:48;;;;;;;6.63;1.10;;;19.30;99.90;;;;;;5014200;28;20108;-66
2022/09/20 13:11:18;;;;;;;7.85;1.23;;;19.30;99.90;;;;;;5011484;28;20475;-67
2022/09/20 13:13:50;;;;;;;4.43;1.30;;;19.00;99.90;;;;;;5000598;28;20026;-67
2022/09/20 13:16:40;;;;;;;7.22;0.93;;;19.10;99.90;;;;;;5004356;28;20069;-67
2022/09/20 13:19:18;;;;;;;5.20;0.90;;;20.00;99.50;;;;;;5013698;28;20061;-67
2022/09/20 13:22:06;;;;;;;7.57;1.30;;;20.10;99.20;;;;;;5013729;28;20033;-67
2022/09/20 13:24:37;;;;;;;2.28;0.70;;;20.60;98.50;;;;;;5013570;28;20040;-67
2022/09/20 13:27:18;;;;;;;8.85;1.20;;;20.80;97.90;;;;;;5013266;28;20501;-67
2022/09/20 13:29:44;;;;;;;5.80;1.25;;;21.40;98.20;;;;;;5013304;28;20045;-67
2022/09/20 13:32:23;;;;;;;4.85;1.00;;;21.40;96.80;;;;;;5012418;28;20033;-68
2022/09/20 13:35:08;;;;;;;9.45;1.25;;;19.70;99.30;;;;;;5013329;28;20148;-67
2022/09/20 13:37:45;;;;;;;8.23;1.45;;;19.30;99.90;;;;;;5013351;28;20068;-66
2022/09/20 13:40:41;;;;;;;13.43;1.52;;;18.90;99.90;;;;;;5013161;28;20486;-67
2022/09/20 13:43:28;;;;;;;4.45;1.20;;;18.90;99.90;;;;;;5013434;28;20414;-67
2022/09/20 13:45:59;;;;;;;5.78;0.93;;;18.70;99.90;;;;;;5013480;28;20348;-68
2022/09/20 13:48:29;;;;;;;5.10;0.85;;;18.30;99.90;;;;;;5013408;28;20038;-67
2022/09/20 13:50:56;;;;;;;7.85;1.45;;;18.30;99.90;;;;;;5013245;28;20053;-68
2022/09/20 13:53:25;;;;;;;9.70;1.25;;;18.40;99.90;;;;;;5013026;28;20092;-67